createdAt,value
2023-10-09T00:06:18.045Z,101755.72
2023-10-09T00:13:31.595Z,101758.41
2023-10-09T00:20:40.597Z,101757.06
2023-10-09T00:27:43.663Z,101736.19
2023-10-09T00:34:45.420Z,101719.47
2023-10-09T00:41:47.342Z,101708.38
2023-10-09T00:48:49.649Z,101693.25
2023-10-09T00:55:56.838Z,101687.66
2023-10-09T01:03:23.088Z,101676.13
2023-10-09T01:10:26.008Z,101675.09
2023-10-09T01:17:36.747Z,101652.69
2023-10-09T01:24:40.058Z,101634.38
2023-10-09T01:31:47.829Z,101602.34
2023-10-09T01:38:51.449Z,101587.16
2023-10-09T01:45:53.240Z,101558.75
2023-10-09T01:52:54.988Z,101522.50
2023-10-09T01:59:58.892Z,101524.16
2023-10-09T02:07:00.647Z,101528.97
2023-10-09T02:14:03.062Z,101511.69
2023-10-09T02:21:04.512Z,101516.47
2023-10-09T02:28:07.047Z,101515.53
2023-10-09T02:35:29.317Z,101510.56
2023-10-09T02:42:31.898Z,101518.13
2023-10-09T02:49:35.172Z,101508.34
2023-10-09T02:56:48.631Z,101478.69
2023-10-09T03:03:51.188Z,101467.44
2023-10-09T03:10:52.889Z,101457.03
2023-10-09T03:17:54.563Z,101445.88
2023-10-09T03:24:56.693Z,101424.41
2023-10-09T03:31:58.545Z,101410.91
2023-10-09T03:39:00.824Z,101383.63
2023-10-09T03:46:04.579Z,101367.16
2023-10-09T03:53:08.380Z,101345.84
2023-10-09T04:00:17.147Z,101343.59
2023-10-09T04:07:18.818Z,101353.78
2023-10-09T04:14:27.129Z,101391.97
2023-10-09T04:21:38.065Z,101397.53
2023-10-09T04:28:43.085Z,101351.66
2023-10-09T04:36:04.626Z,101324.44
2023-10-09T04:43:10.807Z,101349.06
2023-10-09T04:50:13.010Z,101360.28
2023-10-09T04:57:19.048Z,101353.94
2023-10-09T05:04:38.896Z,101344.78
2023-10-09T05:11:52.730Z,101321.13
2023-10-09T05:18:58.806Z,101330.28
2023-10-09T05:26:20.777Z,101327.84
2023-10-09T05:33:40.544Z,101324.50
2023-10-09T05:40:46.575Z,101326.19
2023-10-09T05:47:58.958Z,101321.06
2023-10-09T05:55:19.165Z,101327.72
2023-10-09T06:02:45.572Z,101326.53
2023-10-09T06:09:58.825Z,101325.31
2023-10-09T06:17:23.478Z,101317.41
2023-10-09T06:24:25.178Z,101307.44
2023-10-09T06:31:49.550Z,101313.63
2023-10-09T06:39:14.100Z,101307.16
2023-10-09T06:46:28.072Z,101301.94
2023-10-09T06:53:49.827Z,101303.31
2023-10-09T07:00:54.292Z,101286.41
2023-10-09T07:07:56.956Z,101271.59
2023-10-09T07:15:24.669Z,101281.00
2023-10-09T07:22:30.701Z,101272.72
2023-10-09T07:29:44.216Z,101279.75
2023-10-09T07:36:49.418Z,101291.81
2023-10-09T07:43:51.959Z,101276.13
2023-10-09T07:50:58.480Z,101298.97
2023-10-09T07:58:11.850Z,101297.81
2023-10-09T08:05:23.854Z,101319.84
2023-10-09T08:13:00.770Z,101332.03
2023-10-09T08:20:12.611Z,101343.03
2023-10-09T08:27:32.670Z,101351.09
2023-10-09T08:41:54.390Z,101339.38
2023-10-09T08:49:06.153Z,101344.41
2023-10-09T08:56:08.958Z,101328.25
2023-10-09T09:03:10.847Z,101321.63
2023-10-09T09:10:18.743Z,101315.31
2023-10-09T09:17:24.845Z,101312.06
2023-10-09T09:24:26.594Z,101299.69
2023-10-09T09:31:28.443Z,101303.66
2023-10-09T09:38:36.547Z,101298.34
2023-10-09T09:45:38.837Z,101304.09
2023-10-09T09:52:40.991Z,101322.50
2023-10-09T09:59:51.134Z,101329.84
2023-10-09T10:06:52.985Z,101318.63
2023-10-09T10:13:57.642Z,101325.13
2023-10-09T10:21:18.347Z,101318.88
2023-10-09T10:28:30.431Z,101318.94
2023-10-09T10:35:41.100Z,101299.47
2023-10-09T10:43:07.007Z,101292.66
2023-10-09T10:50:35.390Z,101299.75
2023-10-09T10:57:55.284Z,101294.28
2023-10-09T11:04:57.508Z,101290.09
2023-10-09T11:12:22.652Z,101293.28
2023-10-09T11:19:33.275Z,101287.91
2023-10-09T11:26:41.379Z,101270.56
2023-10-09T11:33:47.610Z,101271.00
2023-10-09T11:40:55.251Z,101250.97
2023-10-09T11:47:59.108Z,101266.38
2023-10-09T11:55:00.873Z,101238.63
2023-10-09T12:02:06.484Z,101245.97
2023-10-09T12:09:17.721Z,101231.72
2023-10-09T12:16:19.482Z,101235.44
2023-10-09T12:23:22.441Z,101239.03
2023-10-09T12:30:27.960Z,101237.47
2023-10-09T12:37:32.420Z,101235.81
2023-10-09T12:44:35.479Z,101234.78
2023-10-09T12:51:37.367Z,101235.75
2023-10-09T12:58:42.699Z,101232.97
2023-10-09T13:05:53.065Z,101234.78
2023-10-09T13:12:57.507Z,101229.25
2023-10-09T13:19:59.170Z,101218.47
2023-10-09T13:27:00.851Z,101234.38
2023-10-09T13:34:04.582Z,101252.28
2023-10-09T13:41:08.415Z,101234.34
2023-10-09T13:48:13.604Z,101243.16
2023-10-09T13:55:18.416Z,101244.44
2023-10-09T14:02:22.353Z,101231.03
2023-10-09T14:09:39.044Z,101226.19
2023-10-09T14:16:44.331Z,101231.84
2023-10-09T14:23:48.114Z,101212.53
2023-10-09T14:30:57.727Z,101220.56
2023-10-09T14:38:02.368Z,101231.41
2023-10-09T14:45:09.280Z,101216.03
2023-10-09T14:52:11.436Z,101207.66
2023-10-09T14:59:13.242Z,101212.44
2023-10-09T15:06:16.034Z,101191.44
2023-10-09T15:13:17.673Z,101206.34
2023-10-09T15:20:19.472Z,101209.88
2023-10-09T15:27:21.128Z,101194.84
2023-10-09T15:34:23.013Z,101215.38
2023-10-09T15:41:24.658Z,101221.81
2023-10-09T15:48:26.335Z,101226.50
2023-10-09T15:55:28.065Z,101235.19
2023-10-09T16:02:29.751Z,101245.28
2023-10-09T16:09:35.982Z,101257.94
2023-10-09T16:16:42.819Z,101252.28
2023-10-09T16:23:44.841Z,101264.00
2023-10-09T16:30:46.586Z,101266.97
2023-10-09T16:37:50.597Z,101255.06
2023-10-09T16:44:52.308Z,101238.91
2023-10-09T16:51:56.249Z,101258.75
2023-10-09T16:58:58.065Z,101268.63
2023-10-09T17:06:05.140Z,101269.03
2023-10-09T17:13:09.101Z,101279.75
2023-10-09T17:20:11.846Z,101287.69
2023-10-09T17:27:18.800Z,101304.72
2023-10-09T17:34:24.041Z,101312.53
2023-10-09T17:41:25.758Z,101319.91
2023-10-09T17:48:27.595Z,101308.28
2023-10-09T17:55:30.834Z,101296.97
2023-10-09T18:02:32.956Z,101289.22
2023-10-09T18:09:34.742Z,101288.41
2023-10-09T18:16:38.712Z,101276.44
2023-10-09T18:23:46.246Z,101280.84
2023-10-09T18:30:50.464Z,101272.91
2023-10-09T18:37:57.971Z,101266.75
2023-10-09T18:44:59.740Z,101267.09
2023-10-09T18:52:01.601Z,101271.16
2023-10-09T18:59:09.821Z,101263.84
2023-10-09T19:06:13.680Z,101262.78
2023-10-09T19:13:15.511Z,101273.03
2023-10-09T19:20:18.282Z,101281.72
2023-10-09T19:27:26.509Z,101289.16
2023-10-09T19:34:28.106Z,101303.25
2023-10-09T19:41:32.320Z,101307.50
2023-10-09T19:48:36.457Z,101293.56
2023-10-09T19:55:41.427Z,101303.16
2023-10-09T20:02:43.356Z,101305.53
2023-10-09T20:09:46.744Z,101318.78
2023-10-09T20:16:49.426Z,101325.13
2023-10-09T20:23:51.738Z,101331.56
2023-10-09T20:30:54.165Z,101327.28
2023-10-09T20:37:56.892Z,101335.06
2023-10-09T20:44:59.447Z,101333.25
2023-10-09T20:52:01.634Z,101330.34
2023-10-09T20:59:03.479Z,101327.25
2023-10-09T21:06:08.514Z,101325.13
2023-10-09T21:13:10.256Z,101338.75
2023-10-09T21:20:19.138Z,101337.41
2023-10-09T21:27:20.814Z,101343.13
2023-10-09T21:34:23.006Z,101349.59
2023-10-09T21:41:27.192Z,101349.06
2023-10-09T21:48:29.018Z,101358.47
2023-10-09T21:55:32.626Z,101350.69
2023-10-09T22:02:34.464Z,101350.84
2023-10-09T22:09:36.695Z,101364.25
2023-10-09T22:16:41.323Z,101362.69
2023-10-09T22:23:54.025Z,101354.81
2023-10-09T22:30:56.952Z,101355.47
2023-10-09T22:37:59.499Z,101358.09
2023-10-09T22:45:01.437Z,101354.28
2023-10-09T22:52:04.444Z,101347.81
2023-10-09T22:59:21.519Z,101344.91
2023-10-09T23:06:34.650Z,101351.91
2023-10-09T23:13:36.800Z,101351.78
2023-10-09T23:20:50.400Z,101362.00
2023-10-09T23:27:51.987Z,101353.78
2023-10-09T23:34:54.015Z,101361.97
2023-10-09T23:42:03.274Z,101366.34
2023-10-09T23:49:08.365Z,101377.34
2023-10-09T23:56:43.008Z,101375.97
